Nbp Island — V2FH3 — position and weather

sailwx.info

Track history (hours):
 
Tides and Currents Weather Stations Pressure Air Temp Water Temp Dewpoint Dewpoint Depression Visibility Wind Speed Wind Dir Waves Ship Positions

Nbp Island

Last reported at 2016-Dec-07 18:08 UTC. Time now 2016-Dec-08 00:20 UTC.
Position N 48°55' W 005°46'.

Length 107 m; draft 7.4 m.

Type: Cargo ship. MMSI: 305674000.

Date/timePositionNaut miles runAvg speedWind from/ knotsBaromVisibWave heightAir tempDewpointWater temp
2016-Dec-07 18:08N 48°55' W 005°46'6 9.7
2016-Dec-07 17:28N 48°58' W 005°38'4210.6
2016-Dec-07 13:28N 49°18' W 004°41'1010.6
2016-Dec-07 12:32N 49°23' W 004°28'1210.3
2016-Dec-07 11:22N 49°29' W 004°12'810.0
2016-Dec-07 10:33N 49°33' W 004°01'1010.0
2016-Dec-07 09:33N 49°38' W 003°48'1010.4
2016-Dec-07 08:33N 49°44' W 003°34'1111.0
2016-Dec-07 07:33N 49°49' W 003°20'1211.8
2016-Dec-07 06:33N 49°55' W 003°04'1212.2
2016-Dec-07 05:33N 50°00' W 002°46'1212.2
2016-Dec-07 04:33N 50°04' W 002°28'1211.5
2016-Dec-07 03:32N 50°07' W 002°11'1210.3
2016-Dec-07 02:23N 50°10' W 001°53'8 9.2
2016-Dec-07 01:33N 50°12' W 001°42'18 8.7
2016-Dec-06 23:32N 50°17' W 001°15'9 9.6
2016-Dec-06 22:33N 50°20' W 001°01'1110.9
2016-Dec-06 21:33N 50°23' W 000°45'1211.9
2016-Dec-06 20:33N 50°26' W 000°27'2512.3
2016-Dec-06 18:33N 50°33' E 000°11'3411.0
2016-Dec-06 15:25N 50°48' E 000°59'8 9.7
2016-Dec-06 14:32N 50°54' E 001°09'1010.1
2016-Dec-06 13:33N 51°01' E 001°21'1211.8
2016-Dec-06 12:33N 51°08' E 001°35'1312.6
2016-Dec-06 11:33N 51°18' E 001°48'1212.3
2016-Dec-06 10:33N 51°28' E 001°58'1211.5
2016-Dec-06 09:33N 51°37' E 002°10'1210.9
2016-Dec-06 08:29N 51°46' E 002°24'3310.0
2016-Dec-06 05:12N 52°11' E 002°57'2010.6
2016-Dec-06 03:21N 52°30' E 003°06'38411.0
2016-Dec-04 16:26N 57°37' E 009°48'910.2
2016-Dec-04 15:33N 57°40' E 010°04'1010.4
2016-Dec-04 14:33N 57°44' E 010°22'1010.4
2016-Dec-04 13:33N 57°46' E 010°41'5 4.8
2016-Dec-04 12:33N 57°42' E 010°37'0 0.0
2016-Dec-04 11:34N 57°42' E 010°37'0 0.0
2016-Dec-04 10:31N 57°42' E 010°37'0 0.0
2016-Dec-04 09:33N 57°42' E 010°37'0 0.0
2016-Dec-04 08:33N 57°42' E 010°37'0 0.1
2016-Dec-04 07:33N 57°42' E 010°37'7 6.9
2016-Dec-04 06:33N 57°38' E 010°48'9 9.3
2016-Dec-04 05:33N 57°34' E 011°03'9 9.0
2016-Dec-04 04:33N 57°30' E 011°18'8 8.5
2016-Dec-04 03:33N 57°24' E 011°29'10 9.9
2016-Dec-04 02:33N 57°15' E 011°35'10 9.8
2016-Dec-04 01:32N 57°05' E 011°42'48 9.3
2016-Dec-03 20:21N 56°19' E 012°05'8 9.5
2016-Dec-03 19:33N 56°14' E 012°16'10 9.7
2016-Dec-03 18:33N 56°09' E 012°30'10 9.6
2016-Dec-03 17:33N 56°01' E 012°41'9 9.3
2016-Dec-03 16:33N 55°52' E 012°44'9 9.1
2016-Dec-03 15:33N 55°43' E 012°41'9 9.3
2016-Dec-03 14:33N 55°34' E 012°42'9 8.6
2016-Dec-03 13:33N 55°25' E 012°42'8 8.4
2016-Dec-03 12:33N 55°17' E 012°47'9 9.4
2016-Dec-03 11:33N 55°15' E 013°03'10 9.9
2016-Dec-03 10:33N 55°15' E 013°21'1010.0
2016-Dec-03 09:33N 55°14' E 013°38'1010.1
2016-Dec-03 08:33N 55°14' E 013°56'1010.5
2016-Dec-03 07:33N 55°14' E 014°14'1110.6
2016-Dec-03 06:33N 55°21' E 014°28'1110.8
2016-Dec-03 05:33N 55°29' E 014°42'1110.7
2016-Dec-03 04:33N 55°34' E 014°58'1110.6
2016-Dec-03 03:31N 55°39' E 015°15'  
Track history (hours):
 
Tides and Currents Weather Stations Pressure Air Temp Water Temp Dewpoint Dewpoint Depression Visibility Wind Speed Wind Dir Waves Ship Positions

Nbp Island

Last reported at 2016-Dec-07 18:08 UTC. Time now 2016-Dec-08 00:20 UTC.
Position N 48°55' W 005°46'.

Length 107 m; draft 7.4 m.

Type: Cargo ship. MMSI: 305674000.

Date/timePositionNaut miles runAvg speedWind from/ knotsBaromVisibWave heightAir tempDewpointWater temp
2016-Dec-07 18:08N 48°55' W 005°46'6 9.7
2016-Dec-07 17:28N 48°58' W 005°38'4210.6
2016-Dec-07 13:28N 49°18' W 004°41'1010.6
2016-Dec-07 12:32N 49°23' W 004°28'1210.3
2016-Dec-07 11:22N 49°29' W 004°12'810.0
2016-Dec-07 10:33N 49°33' W 004°01'1010.0
2016-Dec-07 09:33N 49°38' W 003°48'1010.4
2016-Dec-07 08:33N 49°44' W 003°34'1111.0
2016-Dec-07 07:33N 49°49' W 003°20'1211.8
2016-Dec-07 06:33N 49°55' W 003°04'1212.2
2016-Dec-07 05:33N 50°00' W 002°46'1212.2
2016-Dec-07 04:33N 50°04' W 002°28'1211.5
2016-Dec-07 03:32N 50°07' W 002°11'1210.3
2016-Dec-07 02:23N 50°10' W 001°53'8 9.2
2016-Dec-07 01:33N 50°12' W 001°42'18 8.7
2016-Dec-06 23:32N 50°17' W 001°15'9 9.6
2016-Dec-06 22:33N 50°20' W 001°01'1110.9
2016-Dec-06 21:33N 50°23' W 000°45'1211.9
2016-Dec-06 20:33N 50°26' W 000°27'2512.3
2016-Dec-06 18:33N 50°33' E 000°11'3411.0
2016-Dec-06 15:25N 50°48' E 000°59'8 9.7
2016-Dec-06 14:32N 50°54' E 001°09'1010.1
2016-Dec-06 13:33N 51°01' E 001°21'1211.8
2016-Dec-06 12:33N 51°08' E 001°35'1312.6
2016-Dec-06 11:33N 51°18' E 001°48'1212.3
2016-Dec-06 10:33N 51°28' E 001°58'1211.5
2016-Dec-06 09:33N 51°37' E 002°10'1210.9
2016-Dec-06 08:29N 51°46' E 002°24'3310.0
2016-Dec-06 05:12N 52°11' E 002°57'2010.6
2016-Dec-06 03:21N 52°30' E 003°06'38411.0
2016-Dec-04 16:26N 57°37' E 009°48'910.2
2016-Dec-04 15:33N 57°40' E 010°04'1010.4
2016-Dec-04 14:33N 57°44' E 010°22'1010.4
2016-Dec-04 13:33N 57°46' E 010°41'5 4.8
2016-Dec-04 12:33N 57°42' E 010°37'0 0.0
2016-Dec-04 11:34N 57°42' E 010°37'0 0.0
2016-Dec-04 10:31N 57°42' E 010°37'0 0.0
2016-Dec-04 09:33N 57°42' E 010°37'0 0.0
2016-Dec-04 08:33N 57°42' E 010°37'0 0.1
2016-Dec-04 07:33N 57°42' E 010°37'7 6.9
2016-Dec-04 06:33N 57°38' E 010°48'9 9.3
2016-Dec-04 05:33N 57°34' E 011°03'9 9.0
2016-Dec-04 04:33N 57°30' E 011°18'8 8.5
2016-Dec-04 03:33N 57°24' E 011°29'10 9.9
2016-Dec-04 02:33N 57°15' E 011°35'10 9.8
2016-Dec-04 01:32N 57°05' E 011°42'48 9.3
2016-Dec-03 20:21N 56°19' E 012°05'8 9.5
2016-Dec-03 19:33N 56°14' E 012°16'10 9.7
2016-Dec-03 18:33N 56°09' E 012°30'10 9.6
2016-Dec-03 17:33N 56°01' E 012°41'9 9.3
2016-Dec-03 16:33N 55°52' E 012°44'9 9.1
2016-Dec-03 15:33N 55°43' E 012°41'9 9.3
2016-Dec-03 14:33N 55°34' E 012°42'9 8.6
2016-Dec-03 13:33N 55°25' E 012°42'8 8.4
2016-Dec-03 12:33N 55°17' E 012°47'9 9.4
2016-Dec-03 11:33N 55°15' E 013°03'10 9.9
2016-Dec-03 10:33N 55°15' E 013°21'1010.0
2016-Dec-03 09:33N 55°14' E 013°38'1010.1
2016-Dec-03 08:33N 55°14' E 013°56'1010.5
2016-Dec-03 07:33N 55°14' E 014°14'1110.6
2016-Dec-03 06:33N 55°21' E 014°28'1110.8
2016-Dec-03 05:33N 55°29' E 014°42'1110.7
2016-Dec-03 04:33N 55°34' E 014°58'1110.6
2016-Dec-03 03:31N 55°39' E 015°15'  

Dump ship's entire track history